Time;durP1;ratioP1;P1;durP2;ratioP2;P2;SDS_P1;SDS_P2;PMS_P1;PMS_P2;Temp;Humidity;BMP_temperature;BMP_pressure;BME280_temperature;BME280_humidity;BME280_pressure;Samples;Min_cycle;Max_cycle;Signal;HPM_P1;HPM_P2
2023/10/17 00:01:00;;;;;;;4.63;4.10;;;;;;;4.25;70.41;95677.44;4937927;29;20291;-80
2023/10/17 00:03:25;;;;;;;5.47;3.60;;;;;;;4.22;70.75;95675.88;4921284;29;20196;-79
2023/10/17 00:05:54;;;;;;;6.87;3.90;;;;;;;4.11;71.04;95665.53;4945260;29;20621;-78
2023/10/17 00:08:20;;;;;;;4.30;3.90;;;;;;;4.20;70.85;95662.31;4944091;29;20309;-78
2023/10/17 00:10:45;;;;;;;4.30;3.53;;;;;;;4.23;70.39;95662.09;4924629;29;20280;-79
2023/10/17 00:16:17;;;;;;;4.40;3.40;;;;;;;4.19;70.06;95644.44;4922472;29;20244;-79
2023/10/17 00:18:43;;;;;;;4.60;4.20;;;;;;;4.13;70.26;95632.00;4904636;29;20357;-79
2023/10/17 00:21:16;;;;;;;7.93;4.00;;;;;;;4.13;70.33;95624.28;4923663;29;20699;-78
2023/10/17 00:23:42;;;;;;;4.77;3.87;;;;;;;4.10;70.13;95627.06;4914796;29;20340;-79
2023/10/17 00:26:08;;;;;;;4.90;3.73;;;;;;;4.15;70.15;95625.84;4902305;29;20760;-79
2023/10/17 00:28:35;;;;;;;4.63;3.90;;;;;;;4.08;70.05;95619.47;4904570;29;20200;-79
2023/10/17 00:31:00;;;;;;;6.33;3.80;;;;;;;4.12;70.33;95620.91;4926893;29;20225;-79
2023/10/17 00:33:26;;;;;;;5.60;3.50;;;;;;;4.13;69.83;95617.41;4912720;29;20676;-78
2023/10/17 00:35:54;;;;;;;5.77;4.27;;;;;;;4.09;70.51;95623.69;4895916;29;20326;-79
2023/10/17 00:38:19;;;;;;;5.07;3.70;;;;;;;4.08;70.39;95616.91;4900557;29;20482;-79
2023/10/17 00:40:49;;;;;;;4.80;3.80;;;;;;;4.04;70.46;95602.63;4918599;29;20551;-79
2023/10/17 00:43:15;;;;;;;4.87;3.93;;;;;;;4.06;70.80;95598.19;4926543;29;20279;-79
2023/10/17 00:45:43;;;;;;;5.20;4.20;;;;;;;3.98;71.06;95600.50;4936846;28;20551;-78
2023/10/17 00:48:17;;;;;;;5.63;4.57;;;;;;;4.03;71.11;95613.00;4929973;29;20226;-78
2023/10/17 00:50:44;;;;;;;6.93;4.80;;;;;;;3.92;71.25;95613.75;4937665;28;20200;-79
2023/10/17 00:53:11;;;;;;;6.37;4.77;;;;;;;3.90;71.03;95610.47;4931717;29;20760;-79
2023/10/17 00:55:37;;;;;;;6.80;4.60;;;;;;;3.90;71.60;95607.91;4933263;29;20196;-78
2023/10/17 00:58:06;;;;;;;6.27;5.10;;;;;;;3.88;71.31;95607.97;4945169;29;20193;-78
2023/10/17 01:00:39;;;;;;;6.97;5.07;;;;;;;3.84;71.68;95608.31;4926839;29;20314;-79
2023/10/17 01:03:10;;;;;;;7.47;5.67;;;;;;;3.83;71.66;95601.53;4927300;29;20558;-78
2023/10/17 01:05:48;;;;;;;5.67;5.00;;;;;;;3.76;72.26;95613.16;4934886;29;20215;-78
2023/10/17 01:08:13;;;;;;;6.93;4.83;;;;;;;3.69;72.30;95612.75;4914736;29;20221;-78
2023/10/17 01:10:40;;;;;;;7.43;5.23;;;;;;;3.66;72.26;95602.69;4938813;29;20197;-79
2023/10/17 01:13:06;;;;;;;6.27;5.00;;;;;;;3.65;72.42;95607.00;4935690;29;20253;-78
2023/10/17 01:15:32;;;;;;;5.67;4.80;;;;;;;3.58;72.47;95594.69;4931742;29;20181;-78
2023/10/17 01:18:03;;;;;;;5.47;4.40;;;;;;;3.61;72.96;95597.03;4923777;29;20209;-78
2023/10/17 01:20:29;;;;;;;7.20;5.20;;;;;;;3.60;73.06;95595.38;4942054;29;20188;-79
2023/10/17 01:22:56;;;;;;;5.67;4.50;;;;;;;3.61;73.07;95595.28;4933490;29;20273;-79
2023/10/17 01:25:25;;;;;;;6.63;5.17;;;;;;;3.55;72.92;95584.63;4927673;29;20253;-78
2023/10/17 01:27:51;;;;;;;7.07;5.50;;;;;;;3.50;73.53;95584.91;4934335;29;20246;-79
2023/10/17 01:30:17;;;;;;;6.07;5.20;;;;;;;3.52;73.43;95588.19;4956946;28;20189;-78
2023/10/17 01:32:44;;;;;;;6.90;5.10;;;;;;;3.55;73.76;95579.50;4941176;29;20197;-78
2023/10/17 01:35:10;;;;;;;7.37;5.10;;;;;;;3.55;73.39;95589.75;4941546;29;20267;-79
2023/10/17 01:37:36;;;;;;;6.43;5.13;;;;;;;3.56;73.48;95587.09;4945190;29;20220;-79
2023/10/17 01:40:08;;;;;;;6.53;4.90;;;;;;;3.53;73.14;95587.28;4932264;29;20186;-78
2023/10/17 01:42:33;;;;;;;8.63;5.47;;;;;;;3.53;73.44;95589.84;4939951;29;20186;-78
2023/10/17 01:44:59;;;;;;;6.87;5.73;;;;;;;3.54;73.31;95586.38;4932212;29;20273;-79
2023/10/17 01:47:26;;;;;;;6.03;5.30;;;;;;;3.52;73.29;95580.50;4920667;29;20214;-79
2023/10/17 01:49:51;;;;;;;6.47;5.67;;;;;;;3.51;73.50;95586.56;4931513;29;20185;-79
2023/10/17 01:52:17;;;;;;;6.57;5.17;;;;;;;3.48;73.27;95591.09;4918378;29;20200;-78
2023/10/17 01:54:47;;;;;;;5.73;5.13;;;;;;;3.45;73.59;95587.00;4920828;29;20568;-78
2023/10/17 01:57:12;;;;;;;6.77;5.40;;;;;;;3.43;73.64;95586.25;4926171;29;20633;-78
2023/10/17 01:59:38;;;;;;;7.57;5.87;;;;;;;3.45;73.78;95584.44;4947723;29;20192;-80
2023/10/17 02:02:04;;;;;;;5.70;5.10;;;;;;;3.42;73.77;95589.75;4917787;29;20200;-79
2023/10/17 02:04:30;;;;;;;6.67;5.10;;;;;;;3.34;73.98;95587.69;4934262;29;20185;-79
2023/10/17 02:06:56;;;;;;;8.37;6.03;;;;;;;3.27;74.44;95591.63;4942098;28;20210;-80
2023/10/17 02:11:54;;;;;;;6.90;5.50;;;;;;;3.34;73.93;95582.56;4937481;29;20201;-79
2023/10/17 02:14:20;;;;;;;6.70;5.63;;;;;;;3.24;75.02;95586.66;4934511;29;20606;-79
2023/10/17 02:16:46;;;;;;;6.17;5.23;;;;;;;3.24;74.37;95584.09;4936428;28;20208;-78
2023/10/17 02:19:11;;;;;;;9.47;5.90;;;;;;;3.36;74.24;95595.31;4939571;29;20186;-78
2023/10/17 02:21:39;;;;;;;8.00;5.50;;;;;;;3.33;74.60;95585.22;4924545;28;20321;-78
2023/10/17 02:24:06;;;;;;;6.93;5.70;;;;;;;3.41;73.92;95588.09;4937933;29;20751;-78
2023/10/17 02:26:31;;;;;;;8.73;5.93;;;;;;;3.44;73.81;95594.78;4935025;29;20266;-78
2023/10/17 02:29:04;;;;;;;7.67;5.67;;;;;;;3.43;73.96;95601.66;4940802;29;20322;-78
2023/10/17 02:31:29;;;;;;;6.80;5.50;;;;;;;3.48;73.46;95604.75;4931282;29;20185;-78
2023/10/17 02:33:55;;;;;;;9.50;6.17;;;;;;;3.44;74.22;95600.72;4934861;29;20194;-78
2023/10/17 02:36:21;;;;;;;7.23;5.70;;;;;;;3.46;74.10;95601.47;4941643;29;20209;-78
2023/10/17 02:38:47;;;;;;;8.77;7.10;;;;;;;3.44;74.00;95603.28;4920497;29;20197;-78
2023/10/17 02:41:14;;;;;;;8.97;6.63;;;;;;;3.45;74.25;95604.97;4943821;28;20202;-79
2023/10/17 02:43:45;;;;;;;8.13;6.13;;;;;;;3.48;73.87;95599.63;4926584;29;20268;-78
2023/10/17 02:46:12;;;;;;;7.60;6.00;;;;;;;3.45;74.15;95593.88;4941922;29;20694;-79
2023/10/17 02:48:38;;;;;;;9.07;6.13;;;;;;;3.45;74.28;95584.44;4934832;29;20236;-79
2023/10/17 02:51:54;;;;;;;6.93;5.60;;;;;;;3.39;74.57;95589.97;4932409;29;20195;-79
2023/10/17 02:53:55;;;;;;;9.80;6.53;;;;;;;3.37;74.71;95586.69;4934631;29;20209;-79
2023/10/17 02:56:25;;;;;;;7.70;5.87;;;;;;;3.37;74.65;95582.38;4928992;29;20683;-79
2023/10/17 02:59:06;;;;;;;9.80;6.93;;;;;;;3.31;74.90;95576.81;4929535;29;20321;-79
2023/10/17 03:01:33;;;;;;;9.30;5.97;;;;;;;3.38;74.30;95571.19;4930225;29;20279;-78
2023/10/17 03:04:02;;;;;;;7.47;5.97;;;;;;;3.45;74.01;95568.19;4926512;29;20246;-79
2023/10/17 03:06:27;;;;;;;6.57;5.60;;;;;;;3.51;73.57;95568.59;4943786;29;20282;-79
2023/10/17 03:09:00;;;;;;;8.23;5.67;;;;;;;3.48;73.66;95573.94;4928015;29;20653;-80
2023/10/17 03:12:08;;;;;;;8.37;6.33;;;;;;;3.49;73.41;95577.31;4924740;29;20277;-79
2023/10/17 03:14:19;;;;;;;8.53;5.87;;;;;;;3.53;73.51;95582.13;4936517;29;20225;-78
2023/10/17 03:16:52;;;;;;;7.23;5.70;;;;;;;3.51;73.01;95578.03;4937988;29;20209;-80
2023/10/17 03:19:19;;;;;;;9.63;5.93;;;;;;;3.55;73.21;95575.16;4931242;29;20196;-79
2023/10/17 03:21:45;;;;;;;9.00;6.07;;;;;;;3.53;73.43;95576.19;4942363;29;20192;-79
2023/10/17 03:24:12;;;;;;;7.13;6.23;;;;;;;3.55;73.49;95575.16;4957880;28;20193;-80
2023/10/17 03:26:42;;;;;;;6.87;5.87;;;;;;;3.52;72.98;95590.75;4938386;28;20265;-78
2023/10/17 03:29:23;;;;;;;7.17;5.80;;;;;;;3.50;73.16;95590.06;4928759;29;20208;-79
2023/10/17 03:31:58;;;;;;;8.37;6.10;;;;;;;3.48;73.70;95597.03;4950249;29;20190;-77
2023/10/17 03:34:37;;;;;;;8.63;6.83;;;;;;;3.51;73.66;95594.25;4944499;28;20258;-80
2023/10/17 03:39:56;;;;;;;7.33;5.80;;;;;;;3.55;73.43;95579.50;4938157;29;20198;-79
2023/10/17 03:45:23;;;;;;;9.20;5.87;;;;;;;3.56;73.10;95579.38;4942497;29;20205;-80
2023/10/17 03:47:56;;;;;;;7.73;6.80;;;;;;;3.65;72.79;95578.75;4955016;28;20302;-80
2023/10/17 03:51:10;;;;;;;12.63;6.70;;;;;;;3.60;72.95;95582.53;4932241;29;20228;-79
2023/10/17 03:53:28;;;;;;;7.87;5.93;;;;;;;3.63;72.82;95583.19;4927513;29;20316;-80
2023/10/17 03:55:54;;;;;;;9.33;6.67;;;;;;;3.65;72.92;95577.94;4937075;29;20285;-79
2023/10/17 04:00:49;;;;;;;8.27;6.10;;;;;;;3.66;72.85;95569.31;4943046;29;20191;-79
2023/10/17 04:03:23;;;;;;;9.53;6.40;;;;;;;3.66;72.64;95571.88;4916226;29;20278;-80
2023/10/17 04:06:01;;;;;;;8.27;6.70;;;;;;;3.70;72.54;95574.09;4942428;29;20216;-79
2023/10/17 04:08:31;;;;;;;10.20;6.37;;;;;;;3.69;72.72;95577.59;4928365;29;20231;-79
2023/10/17 04:11:18;;;;;;;8.30;6.60;;;;;;;3.73;72.76;95579.97;4925174;29;20195;-80
2023/10/17 04:13:48;;;;;;;7.90;6.80;;;;;;;3.71;72.74;95572.38;4935596;29;20188;-80
2023/10/17 04:16:21;;;;;;;8.60;6.20;;;;;;;3.73;72.60;95570.53;4930016;29;20190;-79
2023/10/17 04:18:48;;;;;;;8.63;6.10;;;;;;;3.66;72.75;95562.41;4941952;29;20190;-79
2023/10/17 04:21:36;;;;;;;8.60;6.57;;;;;;;3.70;72.79;95560.44;4926800;29;20196;-79
2023/10/17 04:24:05;;;;;;;7.40;5.90;;;;;;;3.76;72.88;95557.47;4941548;29;20232;-78
2023/10/17 04:26:36;;;;;;;10.00;6.77;;;;;;;3.79;72.43;95548.72;4942365;29;20249;-78
2023/10/17 04:29:21;;;;;;;9.37;6.70;;;;;;;3.71;72.76;95541.56;4921328;29;20205;-79
2023/10/17 04:31:47;;;;;;;8.00;6.70;;;;;;;3.67;73.13;95535.81;4936784;29;20200;-78
2023/10/17 04:34:18;;;;;;;10.07;7.17;;;;;;;3.63;72.95;95542.09;4929433;29;20191;-79
2023/10/17 04:36:43;;;;;;;9.57;7.20;;;;;;;3.69;73.17;95535.69;4939150;29;20209;-79
2023/10/17 04:39:18;;;;;;;10.37;7.87;;;;;;;3.70;73.18;95533.00;4919647;29;20204;-79
2023/10/17 04:44:17;;;;;;;10.07;8.20;;;;;;;3.81;73.19;95534.84;4945277;29;20217;-78
2023/10/17 04:47:25;;;;;;;11.47;8.50;;;;;;;3.74;74.33;95527.69;4939538;29;20773;-79
2023/10/17 04:49:32;;;;;;;11.73;8.70;;;;;;;3.81;74.10;95531.47;4927270;29;20302;-79
2023/10/17 04:52:08;;;;;;;11.13;7.90;;;;;;;3.88;74.12;95528.34;4932543;29;20195;-79
2023/10/17 04:57:07;;;;;;;12.57;9.10;;;;;;;3.84;74.36;95523.53;4946184;29;20212;-83
2023/10/17 04:59:51;;;;;;;12.40;9.07;;;;;;;3.90;74.31;95523.94;4943588;29;20224;-82
2023/10/17 06:18:38;;;;;;;16.60;11.57;;;;;;;4.47;75.48;95543.84;4942691;29;20852;-80
2023/10/17 06:21:07;;;;;;;18.23;12.27;;;;;;;4.49;75.20;95546.31;4933740;29;20189;-78
2023/10/17 06:34:16;;;;;;;17.13;12.50;;;;;;;4.66;74.62;95574.19;4951958;28;20199;-81
2023/10/17 06:36:43;;;;;;;17.10;12.83;;;;;;;4.73;74.75;95580.56;4932848;29;20268;-81
2023/10/17 06:39:16;;;;;;;17.17;12.43;;;;;;;4.84;74.06;95578.00;4925742;29;20194;-80
2023/10/17 06:41:44;;;;;;;19.80;13.73;;;;;;;4.88;74.18;95572.66;4941842;29;20198;-80
2023/10/17 06:44:09;;;;;;;17.90;12.67;;;;;;;4.93;73.84;95570.56;4945685;29;20688;-80
2023/10/17 06:46:56;;;;;;;16.73;12.73;;;;;;;5.02;73.20;95568.13;4947725;28;20217;-80
2023/10/17 06:49:46;;;;;;;16.53;12.77;;;;;;;5.07;73.14;95562.66;4938166;28;20631;-81
2023/10/17 06:54:50;;;;;;;18.00;12.47;;;;;;;5.22;73.31;95571.81;4944687;29;20184;-80
2023/10/17 06:57:19;;;;;;;16.17;12.13;;;;;;;5.40;72.44;95567.84;4944977;29;20868;-81
2023/10/17 06:59:52;;;;;;;18.13;13.07;;;;;;;5.42;71.95;95567.75;4948668;28;20181;-81
2023/10/17 07:02:28;;;;;;;17.70;12.80;;;;;;;5.44;72.34;95557.31;4944421;28;20197;-80
2023/10/17 07:04:56;;;;;;;17.63;12.27;;;;;;;5.59;71.87;95563.88;4940906;29;20190;-82
2023/10/17 07:07:22;;;;;;;16.40;12.37;;;;;;;5.63;71.39;95560.94;4937037;29;20213;-80
2023/10/17 07:10:16;;;;;;;17.47;13.13;;;;;;;5.61;71.97;95572.31;4948124;28;20182;-79
2023/10/17 07:12:39;;;;;;;17.00;12.60;;;;;;;5.74;71.49;95562.69;4943796;29;20256;-80
2023/10/17 07:15:18;;;;;;;18.00;12.93;;;;;;;5.83;70.58;95556.88;4939201;29;20198;-79
2023/10/17 07:18:09;;;;;;;19.20;13.90;;;;;;;5.84;71.11;95552.53;4954601;29;20584;-79
2023/10/17 07:23:32;;;;;;;18.40;13.00;;;;;;;6.01;70.17;95549.50;4934172;29;20190;-77
2023/10/17 07:25:57;;;;;;;16.13;12.53;;;;;;;6.13;69.53;95543.38;4953103;29;20210;-79
2023/10/17 07:28:22;;;;;;;19.13;13.00;;;;;;;6.20;70.04;95541.13;4923074;29;20213;-80
2023/10/17 07:30:57;;;;;;;16.53;12.43;;;;;;;6.27;69.38;95541.44;4935138;29;20182;-80
2023/10/17 07:33:23;;;;;;;16.00;12.73;;;;;;;6.28;68.95;95527.63;4931351;29;20184;-79
2023/10/17 07:35:56;;;;;;;15.70;11.67;;;;;;;6.39;69.26;95530.16;4948663;28;20252;-77
2023/10/17 07:38:27;;;;;;;17.20;12.07;;;;;;;6.39;69.04;95532.75;4941919;29;20206;-81
2023/10/17 07:40:59;;;;;;;20.23;12.93;;;;;;;6.29;69.72;95530.09;4940614;29;20656;-79
2023/10/17 07:43:30;;;;;;;19.33;12.87;;;;;;;6.59;68.40;95534.53;4930791;29;20214;-80
2023/10/17 07:45:56;;;;;;;18.03;12.70;;;;;;;6.61;68.53;95529.25;4928588;29;20213;-80
2023/10/17 07:48:27;;;;;;;16.40;12.57;;;;;;;6.78;68.27;95529.53;4941676;28;20224;-81
2023/10/17 07:50:57;;;;;;;15.40;12.13;;;;;;;6.91;67.44;95519.03;4935259;29;20321;-79
2023/10/17 07:53:22;;;;;;;17.37;12.87;;;;;;;6.71;67.62;95524.97;4936522;29;20182;-80
2023/10/17 07:55:52;;;;;;;22.03;12.50;;;;;;;7.16;67.39;95522.19;4940036;29;20221;-80
2023/10/17 08:01:04;;;;;;;17.03;13.07;;;;;;;7.03;66.98;95517.19;4947232;29;20702;-79
2023/10/17 08:03:29;;;;;;;17.47;12.57;;;;;;;7.26;66.39;95523.06;4938103;29;20293;-78
2023/10/17 08:06:04;;;;;;;16.77;12.63;;;;;;;7.27;66.78;95519.53;4938130;29;20699;-79
2023/10/17 08:08:42;;;;;;;15.40;11.87;;;;;;;7.49;65.85;95521.94;4927159;29;20210;-78
2023/10/17 08:11:19;;;;;;;16.80;12.63;;;;;;;7.37;65.97;95520.38;4943666;29;20260;-78
2023/10/17 08:13:45;;;;;;;16.63;12.67;;;;;;;7.60;65.42;95519.28;4931425;29;20272;-78
2023/10/17 08:16:16;;;;;;;17.43;12.43;;;;;;;7.72;64.45;95521.75;4918600;29;20306;-78
2023/10/17 08:18:42;;;;;;;15.37;11.80;;;;;;;7.74;65.26;95517.28;4931125;29;20694;-78
2023/10/17 08:23:46;;;;;;;14.10;11.50;;;;;;;8.10;63.45;95515.88;4940157;29;20269;-78
2023/10/17 08:26:13;;;;;;;16.93;13.23;;;;;;;8.12;63.76;95509.59;4922840;29;20256;-78
2023/10/17 08:31:36;;;;;;;19.97;12.73;;;;;;;8.46;62.58;95510.09;4941897;29;20189;-78
2023/10/17 08:36:59;;;;;;;14.03;11.57;;;;;;;8.45;62.67;95518.81;4942734;29;20202;-79
2023/10/17 08:42:00;;;;;;;15.93;12.07;;;;;;;8.64;61.52;95530.94;4940203;28;20190;-78
2023/10/17 08:44:32;;;;;;;15.07;11.90;;;;;;;8.75;61.32;95536.00;4942157;29;20697;-79
2023/10/17 08:46:57;;;;;;;15.77;12.40;;;;;;;8.82;61.21;95535.44;4940011;29;20380;-77
2023/10/17 08:49:27;;;;;;;15.57;12.03;;;;;;;8.94;61.01;95535.19;4932549;29;20292;-78
2023/10/17 08:51:52;;;;;;;15.70;11.97;;;;;;;9.31;60.08;95534.44;4918474;29;20228;-78
2023/10/17 08:54:19;;;;;;;14.77;11.80;;;;;;;9.12;60.07;95532.69;4920962;29;20236;-77
2023/10/17 08:56:47;;;;;;;13.80;11.30;;;;;;;9.17;60.10;95533.09;4941320;29;20205;-79
2023/10/17 08:59:13;;;;;;;14.93;11.43;;;;;;;9.13;59.82;95528.34;4925462;29;20188;-79
2023/10/17 09:01:59;;;;;;;15.67;11.57;;;;;;;9.55;59.28;95533.97;4923559;29;20193;-78
2023/10/17 09:04:24;;;;;;;14.70;10.93;;;;;;;9.60;59.43;95534.34;4944273;28;20276;-77
2023/10/17 09:06:59;;;;;;;14.53;10.73;;;;;;;9.65;59.36;95525.19;4940468;29;20772;-80
2023/10/17 09:09:25;;;;;;;14.03;10.53;;;;;;;9.71;59.22;95528.16;4914498;29;20215;-79
2023/10/17 09:12:01;;;;;;;14.77;11.40;;;;;;;9.82;58.42;95526.22;4942375;29;20663;-77
2023/10/17 09:14:29;;;;;;;15.20;11.47;;;;;;;9.98;58.26;95520.38;4935148;29;20190;-77
2023/10/17 09:17:39;;;;;;;15.10;11.00;;;;;;;10.09;58.32;95522.81;4939933;29;20198;-79
2023/10/17 09:20:05;;;;;;;13.63;10.77;;;;;;;10.20;57.93;95532.97;4936840;29;20291;-78
2023/10/17 09:22:30;;;;;;;12.13;10.27;;;;;;;10.45;58.13;95525.47;4945883;29;20204;-79
2023/10/17 09:24:56;;;;;;;12.67;10.77;;;;;;;10.45;57.75;95528.06;4945360;29;20273;-78
2023/10/17 09:27:21;;;;;;;11.70;10.37;;;;;;;10.57;57.05;95534.69;4927542;29;20305;-78
2023/10/17 09:29:59;;;;;;;12.87;10.23;;;;;;;10.61;56.63;95528.25;4936168;29;20300;-78
2023/10/17 09:32:34;;;;;;;12.13;9.60;;;;;;;10.92;55.69;95533.84;4929147;29;20189;-80
2023/10/17 09:35:10;;;;;;;12.17;10.30;;;;;;;10.68;55.85;95533.63;4947778;28;20565;-79
2023/10/17 09:37:43;;;;;;;13.17;10.60;;;;;;;10.79;56.13;95525.63;4925768;29;20216;-78
2023/10/17 09:40:12;;;;;;;12.30;10.03;;;;;;;10.71;55.98;95522.97;4922092;29;20189;-79
2023/10/17 09:42:45;;;;;;;12.90;10.13;;;;;;;10.77;56.10;95533.56;4948666;29;20190;-78
2023/10/17 09:45:12;;;;;;;13.77;10.37;;;;;;;10.75;55.49;95532.09;4944284;29;20189;-78
2023/10/17 09:47:44;;;;;;;13.00;10.07;;;;;;;10.92;55.72;95536.47;4942897;29;20230;-79
2023/10/17 09:50:16;;;;;;;13.43;10.20;;;;;;;10.82;55.67;95534.91;4923555;29;20190;-79
2023/10/17 09:52:43;;;;;;;12.63;9.67;;;;;;;10.72;55.48;95537.59;4931166;29;20198;-79
2023/10/17 09:55:10;;;;;;;10.97;9.37;;;;;;;10.76;55.92;95547.50;4926612;29;20300;-78
2023/10/17 09:57:37;;;;;;;12.67;10.10;;;;;;;10.69;55.74;95554.28;4946232;29;20213;-80
2023/10/17 10:00:27;;;;;;;11.27;9.20;;;;;;;10.81;55.51;95544.47;4947703;28;20213;-80
2023/10/17 10:02:53;;;;;;;11.83;9.30;;;;;;;10.68;56.35;95546.63;4925089;29;20194;-80
2023/10/17 10:05:22;;;;;;;13.30;10.53;;;;;;;10.62;56.32;95544.63;4928276;29;20202;-80
2023/10/17 10:07:48;;;;;;;14.27;9.87;;;;;;;10.62;56.05;95547.22;4949025;29;20218;-80
2023/10/17 10:10:41;;;;;;;12.37;9.80;;;;;;;10.79;56.65;95551.63;4949758;29;20182;-81
2023/10/17 10:13:08;;;;;;;12.40;9.43;;;;;;;10.70;55.62;95545.53;4941298;29;20584;-79
2023/10/17 10:15:53;;;;;;;11.77;9.20;;;;;;;10.82;55.80;95547.91;4938321;29;20193;-79
2023/10/17 10:18:34;;;;;;;12.73;9.87;;;;;;;11.04;55.83;95539.63;4943595;28;20277;-80
2023/10/17 10:21:01;;;;;;;14.73;10.63;;;;;;;11.05;55.58;95552.50;4946630;29;20634;-80
2023/10/17 10:23:40;;;;;;;10.77;9.47;;;;;;;11.33;54.64;95547.97;4929663;29;20310;-80
2023/10/17 10:26:11;;;;;;;12.67;10.30;;;;;;;11.47;54.05;95545.78;4947545;28;20249;-79
2023/10/17 10:28:37;;;;;;;10.57;9.47;;;;;;;11.56;54.56;95545.69;4941251;29;20706;-80
2023/10/17 10:31:21;;;;;;;11.10;9.87;;;;;;;12.00;54.77;95542.19;4945674;29;20276;-80
2023/10/17 10:33:51;;;;;;;15.73;10.47;;;;;;;11.64;55.06;95548.31;4945876;29;20573;-80
2023/10/17 10:36:18;;;;;;;14.37;10.93;;;;;;;11.90;54.78;95552.72;4945868;29;20190;-79
2023/10/17 10:38:44;;;;;;;15.10;10.93;;;;;;;11.87;54.78;95542.63;4934896;29;20270;-78
2023/10/17 10:41:11;;;;;;;13.77;11.37;;;;;;;11.88;54.40;95554.69;4943326;29;20213;-78
2023/10/17 10:43:36;;;;;;;13.33;10.50;;;;;;;12.21;54.49;95552.22;4944956;28;20201;-79
2023/10/17 10:46:02;;;;;;;14.43;11.23;;;;;;;12.28;53.78;95554.03;4946307;29;20628;-79
2023/10/17 10:48:28;;;;;;;12.80;10.00;;;;;;;12.36;53.95;95553.22;4927325;29;20580;-80
2023/10/17 10:50:56;;;;;;;14.20;10.80;;;;;;;12.59;53.26;95545.66;4934239;29;20189;-78
2023/10/17 10:53:29;;;;;;;11.47;10.23;;;;;;;12.64;52.47;95546.00;4936504;29;20193;-78
2023/10/17 10:55:56;;;;;;;13.80;11.30;;;;;;;12.24;53.14;95544.91;4910920;29;20178;-78
2023/10/17 10:58:25;;;;;;;13.53;10.47;;;;;;;12.37;53.27;95544.47;4946389;28;20269;-79
2023/10/17 11:00:51;;;;;;;11.27;9.77;;;;;;;12.50;52.73;95538.78;4927844;29;20217;-78
2023/10/17 11:03:19;;;;;;;15.73;10.67;;;;;;;12.54;52.97;95535.69;4938333;29;20601;-79
2023/10/17 11:05:52;;;;;;;13.00;10.30;;;;;;;12.42;53.78;95543.00;4937626;28;20205;-80
2023/10/17 11:08:21;;;;;;;12.33;10.63;;;;;;;12.50;52.98;95539.59;4941441;29;20252;-78
2023/10/17 11:10:46;;;;;;;13.87;11.50;;;;;;;12.06;53.43;95542.41;4944883;29;20232;-79
2023/10/17 11:13:12;;;;;;;13.70;11.03;;;;;;;12.40;53.33;95534.53;4942676;29;20559;-79
2023/10/17 11:15:43;;;;;;;11.83;10.10;;;;;;;12.76;52.94;95536.88;4950890;28;20174;-80
2023/10/17 11:18:09;;;;;;;14.13;10.73;;;;;;;12.75;51.92;95532.66;4929300;29;20201;-79
2023/10/17 11:20:43;;;;;;;12.33;10.00;;;;;;;12.68;51.92;95527.25;4927448;29;20682;-80
2023/10/17 11:23:12;;;;;;;12.40;9.50;;;;;;;12.70;52.02;95530.50;4933882;29;20187;-80
2023/10/17 11:25:40;;;;;;;10.87;9.73;;;;;;;12.38;52.42;95523.47;4936023;29;20246;-80
2023/10/17 11:28:09;;;;;;;13.37;10.80;;;;;;;12.47;52.80;95534.72;4921827;29;20202;-80
2023/10/17 11:30:40;;;;;;;14.10;10.43;;;;;;;12.36;52.84;95524.59;4936604;29;20308;-79
2023/10/17 11:33:10;;;;;;;11.40;9.53;;;;;;;12.45;53.61;95521.03;4945397;29;20208;-79
2023/10/17 11:35:45;;;;;;;11.30;10.10;;;;;;;12.52;52.81;95522.03;4947355;29;20194;-80
2023/10/17 11:38:34;;;;;;;14.20;10.23;;;;;;;12.43;52.40;95507.34;4937560;29;20232;-79
2023/10/17 11:41:02;;;;;;;13.57;10.33;;;;;;;12.29;52.95;95516.59;4943452;28;20683;-80
2023/10/17 11:43:28;;;;;;;12.47;9.93;;;;;;;12.03;53.35;95516.69;4929349;29;20182;-80
2023/10/17 11:45:54;;;;;;;12.97;10.37;;;;;;;12.26;52.85;95516.91;4925863;29;20574;-79
2023/10/17 11:48:26;;;;;;;12.40;9.70;;;;;;;12.37;53.10;95519.25;4948981;28;20223;-77
2023/10/17 11:51:05;;;;;;;10.60;9.00;;;;;;;12.30;52.88;95512.22;4963446;28;20184;-78
2023/10/17 11:53:34;;;;;;;14.23;10.30;;;;;;;12.64;52.14;95512.94;4963764;28;20189;-77
2023/10/17 11:56:01;;;;;;;13.27;9.87;;;;;;;12.44;52.36;95512.41;4966764;28;20241;-79
2023/10/17 11:58:29;;;;;;;14.47;9.50;;;;;;;12.55;52.39;95506.09;4966842;28;20224;-78
2023/10/17 12:00:54;;;;;;;11.60;8.83;;;;;;;12.58;52.33;95515.38;4971338;28;20244;-77
2023/10/17 12:03:20;;;;;;;10.97;9.40;;;;;;;12.54;52.25;95512.25;4947248;28;20178;-78
2023/10/17 12:05:48;;;;;;;11.60;9.23;;;;;;;12.57;52.35;95508.53;4964396;28;20205;-77
2023/10/17 12:08:23;;;;;;;11.10;9.67;;;;;;;12.41;52.76;95504.09;4966764;28;20217;-78
2023/10/17 12:10:50;;;;;;;11.67;9.10;;;;;;;12.77;52.26;95492.41;4953998;28;20171;-77
2023/10/17 12:13:17;;;;;;;12.90;9.27;;;;;;;13.04;51.98;95493.88;4960206;28;20201;-77
2023/10/17 12:15:43;;;;;;;12.10;9.50;;;;;;;12.92;51.55;95492.59;4958850;28;20171;-76
2023/10/17 12:18:09;;;;;;;13.17;8.93;;;;;;;12.78;52.16;95488.03;4961296;28;20233;-78
2023/10/17 12:20:40;;;;;;;11.73;8.70;;;;;;;12.74;52.24;95484.13;4954098;28;20561;-78
2023/10/17 12:23:08;;;;;;;12.60;8.60;;;;;;;13.04;51.96;95490.47;4934898;29;20284;-78
2023/10/17 12:25:34;;;;;;;11.60;8.80;;;;;;;12.69;52.19;95491.59;4941118;29;20231;-81
2023/10/17 12:28:02;;;;;;;12.43;9.73;;;;;;;12.90;52.17;95484.13;4971298;28;20221;-77
2023/10/17 12:30:27;;;;;;;12.93;10.60;;;;;;;12.91;52.44;95493.56;4942979;28;20280;-77
2023/10/17 12:32:55;;;;;;;14.23;9.60;;;;;;;13.15;51.77;95490.13;4947399;29;20514;-78
2023/10/17 12:35:21;;;;;;;14.03;9.40;;;;;;;13.13;51.67;95473.84;4940901;29;20193;-76
2023/10/17 12:37:50;;;;;;;14.00;9.03;;;;;;;13.06;51.55;95478.06;4927259;29;20206;-78
2023/10/17 12:40:18;;;;;;;13.57;9.87;;;;;;;13.25;51.42;95477.78;4939186;29;20183;-76
2023/10/17 12:42:49;;;;;;;12.83;9.70;;;;;;;13.14;51.21;95472.84;4950757;29;20186;-78
2023/10/17 12:45:14;;;;;;;11.20;9.03;;;;;;;13.13;51.61;95473.84;4924952;29;20212;-78
2023/10/17 12:47:40;;;;;;;13.70;10.07;;;;;;;13.08;50.88;95475.31;4926036;29;20229;-78
2023/10/17 12:50:09;;;;;;;15.23;9.97;;;;;;;13.02;51.34;95471.56;4926627;29;20190;-77
2023/10/17 12:52:34;;;;;;;14.33;9.73;;;;;;;12.80;51.65;95469.59;4942789;29;20226;-77
2023/10/17 12:54:59;;;;;;;14.33;9.83;;;;;;;12.98;51.96;95462.44;4936995;29;20201;-77
2023/10/17 12:57:25;;;;;;;15.73;9.90;;;;;;;12.74;51.68;95466.69;4941995;29;20225;-77
2023/10/17 12:59:50;;;;;;;14.70;9.93;;;;;;;12.94;51.83;95468.97;4920809;29;20201;-77
2023/10/17 13:02:15;;;;;;;12.47;9.50;;;;;;;12.62;51.91;95464.56;4944733;29;20268;-77
2023/10/17 13:04:41;;;;;;;14.40;9.67;;;;;;;12.63;52.96;95459.22;4934885;29;20197;-78
2023/10/17 13:07:06;;;;;;;12.27;9.70;;;;;;;12.82;51.72;95460.69;4940170;28;20221;-77
2023/10/17 13:09:32;;;;;;;11.70;9.37;;;;;;;12.99;51.91;95464.91;4942946;29;20194;-77
2023/10/17 13:11:57;;;;;;;11.47;9.27;;;;;;;13.12;52.05;95472.22;4942975;29;20256;-78
2023/10/17 13:14:23;;;;;;;13.80;9.80;;;;;;;13.06;52.36;95462.44;4934889;29;20201;-78
2023/10/17 13:16:48;;;;;;;11.23;9.60;;;;;;;13.01;52.22;95457.72;4933253;29;20206;-78
2023/10/17 13:19:18;;;;;;;10.90;9.77;;;;;;;13.20;51.18;95459.19;4955231;28;20228;-78
2023/10/17 13:21:45;;;;;;;10.90;8.67;;;;;;;13.47;51.35;95455.38;4942527;28;20652;-78
2023/10/17 13:24:10;;;;;;;10.77;8.80;;;;;;;13.50;51.02;95455.03;4939152;29;20200;-77
2023/10/17 13:26:37;;;;;;;12.83;9.40;;;;;;;13.67;50.39;95450.59;4956454;28;20225;-79
2023/10/17 13:29:04;;;;;;;11.23;9.07;;;;;;;13.69;49.86;95438.16;4938080;29;20236;-76
2023/10/17 13:31:30;;;;;;;10.33;9.20;;;;;;;13.48;50.38;95440.53;4947517;29;20587;-77
2023/10/17 13:33:55;;;;;;;12.07;9.60;;;;;;;13.67;50.05;95439.34;4941705;28;20209;-79
2023/10/17 13:36:21;;;;;;;13.60;9.57;;;;;;;13.61;50.08;95435.63;4932193;29;20280;-78
2023/10/17 13:38:48;;;;;;;13.07;9.33;;;;;;;13.68;49.97;95433.13;4934724;29;20182;-78
2023/10/17 13:41:17;;;;;;;13.90;8.33;;;;;;;13.94;49.83;95428.44;4917028;29;20194;-79
2023/10/17 13:43:43;;;;;;;11.33;9.10;;;;;;;13.68;50.44;95433.94;4940821;29;20213;-79
2023/10/17 13:46:13;;;;;;;11.57;9.07;;;;;;;13.79;49.57;95441.41;4925770;29;20216;-78